createdAt,value
2023-04-30T00:00:52.200Z,19.93
2023-04-30T00:03:18.873Z,20.02
2023-04-30T00:05:45.670Z,20.16
2023-04-30T00:08:12.152Z,20.40
2023-04-30T00:10:38.976Z,20.33
2023-04-30T00:13:05.453Z,20.18
2023-04-30T00:15:32.052Z,19.58
2023-04-30T00:17:58.579Z,19.32
2023-04-30T00:20:25.497Z,19.70
2023-04-30T00:22:52.065Z,20.03
2023-04-30T00:25:18.657Z,20.04
2023-04-30T00:27:45.176Z,20.17
2023-04-30T00:30:12.204Z,20.17
2023-04-30T00:32:40.741Z,20.04
2023-04-30T00:35:07.706Z,19.88
2023-04-30T00:37:34.212Z,19.86
2023-04-30T00:40:01.175Z,19.71
2023-04-30T00:42:27.768Z,19.69
2023-04-30T00:44:54.267Z,19.89
2023-04-30T00:47:21.083Z,19.69
2023-04-30T00:49:48.229Z,19.42
2023-04-30T00:52:14.992Z,19.54
2023-04-30T00:54:41.774Z,19.57
2023-04-30T00:57:12.027Z,19.54
2023-04-30T00:59:38.750Z,19.27
2023-04-30T01:02:05.811Z,19.20
2023-04-30T01:04:33.520Z,18.91
2023-04-30T01:07:02.151Z,18.54
2023-04-30T01:09:29.617Z,18.22
2023-04-30T01:12:13.372Z,18.29
2023-04-30T01:14:57.106Z,18.56
2023-04-30T01:17:33.779Z,18.19
2023-04-30T01:20:01.597Z,18.10
2023-04-30T01:22:28.312Z,18.18
2023-04-30T01:25:19.606Z,18.23
2023-04-30T01:28:01.357Z,18.25
2023-04-30T01:30:30.491Z,18.14
2023-04-30T01:32:57.278Z,18.35
2023-04-30T01:35:39.006Z,18.41
2023-04-30T01:38:20.887Z,18.64
2023-04-30T01:40:55.475Z,18.41
2023-04-30T01:43:44.304Z,18.56
2023-04-30T01:46:27.224Z,18.69
2023-04-30T01:48:58.170Z,18.77
2023-04-30T01:51:39.626Z,18.56
2023-04-30T01:54:29.461Z,18.62
2023-04-30T01:57:07.555Z,18.72
2023-04-30T01:59:39.844Z,18.51
2023-04-30T02:02:06.849Z,17.70
2023-04-30T02:04:33.450Z,17.72
2023-04-30T02:07:00.206Z,18.11
2023-04-30T02:09:26.951Z,18.39
2023-04-30T02:11:53.499Z,18.49
2023-04-30T02:14:20.040Z,18.34
2023-04-30T02:16:46.696Z,18.52
2023-04-30T02:19:13.193Z,18.49
2023-04-30T02:21:39.805Z,18.57
2023-04-30T02:24:06.657Z,18.68
2023-04-30T02:26:33.813Z,18.44
2023-04-30T02:29:00.358Z,18.48
2023-04-30T02:31:27.101Z,18.25
2023-04-30T02:33:53.732Z,18.19
2023-04-30T02:36:20.335Z,18.01
2023-04-30T02:38:47.166Z,18.21
2023-04-30T02:41:13.748Z,18.25
2023-04-30T02:43:40.542Z,18.45
2023-04-30T02:46:07.185Z,18.18
2023-04-30T02:48:33.701Z,18.41
2023-04-30T02:51:00.453Z,18.72
2023-04-30T02:53:27.013Z,18.77
2023-04-30T02:55:53.561Z,18.71
2023-04-30T02:58:20.064Z,18.08
2023-04-30T03:00:46.583Z,17.93
2023-04-30T03:03:13.472Z,18.24
2023-04-30T03:05:40.156Z,18.36
2023-04-30T03:08:06.684Z,18.16
2023-04-30T03:10:33.212Z,18.27
2023-04-30T03:12:59.786Z,18.23
2023-04-30T03:15:26.759Z,18.22
2023-04-30T03:17:53.284Z,18.10
2023-04-30T03:20:20.353Z,17.96
2023-04-30T03:22:46.909Z,17.92
2023-04-30T03:25:13.495Z,18.04
2023-04-30T03:27:40.067Z,17.59
2023-04-30T03:30:07.502Z,17.72
2023-04-30T03:32:34.144Z,17.98
2023-04-30T03:35:00.839Z,17.97
2023-04-30T03:37:27.351Z,17.62
2023-04-30T03:39:54.165Z,17.54
2023-04-30T03:42:21.095Z,17.54
2023-04-30T03:44:47.832Z,17.51
2023-04-30T03:47:14.368Z,17.23
2023-04-30T03:49:40.884Z,17.43
2023-04-30T03:52:07.551Z,17.72
2023-04-30T03:54:34.108Z,17.84
2023-04-30T03:57:04.299Z,17.71
2023-04-30T03:59:32.166Z,17.82
2023-04-30T04:02:00.822Z,17.80
2023-04-30T04:04:27.582Z,17.85
2023-04-30T04:06:54.153Z,17.93
2023-04-30T04:09:20.836Z,17.64
2023-04-30T04:11:47.358Z,17.71
2023-04-30T04:14:14.117Z,17.41
2023-04-30T04:16:42.343Z,16.93
2023-04-30T04:19:09.129Z,17.01
2023-04-30T04:21:36.582Z,17.58
2023-04-30T04:24:08.688Z,17.71
2023-04-30T04:26:37.187Z,17.72
2023-04-30T04:29:04.714Z,18.08
2023-04-30T04:31:32.104Z,17.96
2023-04-30T04:34:00.341Z,17.92
2023-04-30T04:36:28.374Z,17.77
2023-04-30T04:39:01.878Z,17.89
2023-04-30T04:41:29.880Z,17.95
2023-04-30T04:43:56.823Z,17.89
2023-04-30T04:46:24.930Z,17.90
2023-04-30T04:48:52.247Z,17.94
2023-04-30T04:51:18.886Z,18.15
2023-04-30T04:53:45.470Z,18.36
2023-04-30T04:56:12.822Z,18.52
2023-04-30T04:58:39.886Z,18.37
2023-04-30T05:01:06.474Z,18.45
2023-04-30T05:03:36.944Z,18.44
2023-04-30T05:06:04.219Z,18.34
2023-04-30T05:08:31.638Z,18.39
2023-04-30T05:10:58.309Z,18.47
2023-04-30T05:13:24.851Z,18.45
2023-04-30T05:15:52.885Z,18.51
2023-04-30T05:18:20.328Z,18.59
2023-04-30T05:20:46.883Z,18.81
2023-04-30T05:23:13.507Z,18.99
2023-04-30T05:25:40.059Z,18.87
2023-04-30T05:28:06.643Z,18.72
2023-04-30T05:30:33.376Z,18.81
2023-04-30T05:32:59.945Z,18.82
2023-04-30T05:35:26.571Z,18.76
2023-04-30T05:37:53.334Z,18.85
2023-04-30T05:40:20.420Z,18.62
2023-04-30T05:42:46.972Z,18.84
2023-04-30T05:45:14.683Z,18.90
2023-04-30T05:47:41.504Z,19.04
2023-04-30T05:50:09.856Z,19.12
2023-04-30T05:52:36.411Z,19.18
2023-04-30T05:55:02.968Z,19.00
2023-04-30T05:57:29.648Z,19.34
2023-04-30T05:59:56.429Z,19.33
2023-04-30T06:02:23.295Z,19.25
2023-04-30T06:04:50.066Z,19.24
2023-04-30T06:07:16.539Z,19.45
2023-04-30T06:09:43.136Z,19.56
2023-04-30T06:12:10.015Z,19.46
2023-04-30T06:14:36.766Z,19.43
2023-04-30T06:17:03.356Z,19.51
2023-04-30T06:19:29.928Z,19.45
2023-04-30T06:21:56.508Z,19.64
2023-04-30T06:24:23.214Z,19.81
2023-04-30T06:26:49.831Z,19.85
2023-04-30T06:29:16.478Z,19.73
2023-04-30T06:31:43.100Z,19.61
2023-04-30T06:34:09.677Z,19.48
2023-04-30T06:36:36.218Z,19.37
2023-04-30T06:39:03.182Z,19.85
2023-04-30T06:41:29.733Z,20.03
2023-04-30T06:43:56.286Z,19.90
2023-04-30T06:46:23.060Z,20.17
2023-04-30T06:48:49.682Z,20.21
2023-04-30T06:51:16.217Z,20.02
2023-04-30T06:53:42.971Z,19.69
2023-04-30T06:56:09.583Z,19.72
2023-04-30T06:58:36.257Z,19.92
2023-04-30T07:01:03.394Z,20.07
2023-04-30T07:03:30.190Z,20.55
2023-04-30T07:05:57.430Z,20.80
2023-04-30T07:08:24.389Z,21.69
2023-04-30T07:10:50.938Z,23.24
2023-04-30T07:13:17.580Z,25.16
2023-04-30T07:15:44.532Z,25.79
2023-04-30T07:18:11.339Z,24.43
2023-04-30T07:20:38.029Z,24.22
2023-04-30T07:23:04.718Z,23.55
2023-04-30T07:25:31.365Z,23.97
2023-04-30T07:27:58.034Z,23.75
2023-04-30T07:30:25.346Z,24.80
2023-04-30T07:32:51.996Z,25.14
2023-04-30T07:35:18.958Z,24.27
2023-04-30T07:37:45.770Z,25.82
2023-04-30T07:40:15.395Z,27.01
2023-04-30T07:42:46.209Z,25.85
2023-04-30T07:45:13.402Z,24.79
2023-04-30T07:47:40.697Z,24.66
2023-04-30T07:50:07.700Z,24.42
2023-04-30T07:52:34.480Z,24.28
2023-04-30T07:55:01.004Z,24.28
2023-04-30T07:57:27.671Z,25.02
2023-04-30T07:59:54.594Z,25.41
2023-04-30T08:02:21.726Z,26.63
2023-04-30T08:04:48.775Z,26.13
2023-04-30T08:07:18.241Z,26.07
2023-04-30T08:09:44.788Z,25.80
2023-04-30T08:12:11.377Z,25.49
2023-04-30T08:14:37.974Z,25.53
2023-04-30T08:17:04.794Z,25.00
2023-04-30T08:19:31.990Z,24.96
2023-04-30T08:21:59.661Z,25.11
2023-04-30T08:24:26.348Z,24.98
2023-04-30T08:26:54.726Z,24.41
2023-04-30T08:29:21.801Z,24.12
2023-04-30T08:31:48.463Z,23.61
2023-04-30T08:34:15.159Z,23.88
2023-04-30T08:36:41.747Z,24.28
2023-04-30T08:39:08.337Z,24.32
2023-04-30T08:41:36.685Z,24.37
2023-04-30T08:44:04.764Z,24.57
2023-04-30T08:46:35.460Z,25.27
2023-04-30T08:49:02.241Z,25.16
2023-04-30T08:51:31.725Z,25.49
2023-04-30T08:53:58.258Z,25.24
2023-04-30T08:56:26.393Z,25.03
2023-04-30T08:58:53.007Z,25.37
2023-04-30T09:01:19.978Z,25.57
2023-04-30T09:03:46.725Z,25.46
2023-04-30T09:06:17.373Z,25.65
2023-04-30T09:08:50.654Z,25.53
2023-04-30T09:11:35.212Z,25.42
2023-04-30T09:14:02.664Z,25.53
2023-04-30T09:16:44.183Z,25.36
2023-04-30T09:19:26.467Z,25.61
2023-04-30T09:21:53.550Z,25.98
2023-04-30T09:24:20.212Z,25.82
2023-04-30T09:26:47.772Z,25.74
2023-04-30T09:29:14.961Z,25.42
2023-04-30T09:31:46.940Z,25.42
2023-04-30T09:34:14.469Z,25.80
2023-04-30T09:36:57.109Z,25.74
2023-04-30T09:39:23.970Z,25.54
2023-04-30T09:41:52.327Z,25.42
2023-04-30T09:44:32.185Z,25.58
2023-04-30T09:47:01.132Z,25.63
2023-04-30T09:49:28.105Z,25.96
2023-04-30T09:52:01.578Z,26.30
2023-04-30T09:54:30.785Z,26.35
2023-04-30T09:56:59.187Z,26.33
2023-04-30T09:59:35.269Z,26.44
2023-04-30T10:02:04.604Z,26.40
2023-04-30T10:04:36.930Z,26.66
2023-04-30T10:07:14.069Z,26.67
2023-04-30T10:09:46.435Z,26.58
2023-04-30T10:12:16.044Z,26.71
2023-04-30T10:14:51.299Z,26.43
2023-04-30T10:17:18.420Z,26.22
2023-04-30T10:19:49.705Z,25.98
2023-04-30T10:22:16.748Z,26.22
2023-04-30T10:24:44.714Z,26.05
2023-04-30T10:27:11.968Z,26.17
2023-04-30T10:29:38.476Z,26.07
2023-04-30T10:32:06.149Z,26.32
2023-04-30T10:34:43.046Z,26.50
2023-04-30T10:37:22.102Z,26.24
2023-04-30T10:39:49.723Z,26.18
2023-04-30T10:42:16.349Z,26.76
2023-04-30T10:44:43.013Z,26.13
2023-04-30T10:47:09.606Z,26.19
2023-04-30T10:49:36.401Z,26.46
2023-04-30T10:52:04.914Z,26.43
2023-04-30T10:54:35.872Z,26.36
2023-04-30T10:57:17.688Z,26.48
2023-04-30T10:59:52.460Z,27.03
2023-04-30T11:02:19.238Z,27.18
2023-04-30T11:05:07.733Z,27.32
2023-04-30T11:07:34.946Z,26.90
2023-04-30T11:10:02.472Z,26.93
2023-04-30T11:12:29.709Z,26.75
2023-04-30T11:15:17.832Z,26.92
2023-04-30T11:17:46.087Z,27.03
2023-04-30T11:20:14.597Z,27.24
2023-04-30T11:22:41.550Z,27.21
2023-04-30T11:25:13.163Z,27.15
2023-04-30T11:27:46.652Z,27.19
2023-04-30T11:30:18.480Z,27.25
2023-04-30T11:32:47.659Z,27.02
2023-04-30T11:35:18.795Z,27.03
2023-04-30T11:37:46.324Z,26.96
2023-04-30T11:40:14.505Z,27.29
2023-04-30T11:42:46.119Z,27.87
2023-04-30T11:45:20.622Z,27.85
2023-04-30T11:47:48.925Z,27.63
2023-04-30T11:50:17.665Z,27.83
2023-04-30T11:52:49.966Z,27.99
2023-04-30T11:55:18.124Z,28.04
2023-04-30T11:57:46.740Z,28.29
2023-04-30T12:00:21.066Z,27.72
2023-04-30T12:02:49.527Z,27.50
2023-04-30T12:05:20.781Z,26.84
2023-04-30T12:08:08.945Z,27.52
2023-04-30T12:10:36.380Z,27.25
2023-04-30T12:13:04.014Z,26.94
2023-04-30T12:15:30.611Z,26.64
2023-04-30T12:17:59.198Z,26.98
2023-04-30T12:20:29.243Z,27.33
2023-04-30T12:23:00.002Z,27.90
2023-04-30T12:25:28.855Z,27.56
2023-04-30T12:27:55.606Z,27.58
2023-04-30T12:30:24.852Z,27.24
2023-04-30T12:32:53.381Z,27.21
2023-04-30T12:35:22.581Z,27.30
2023-04-30T12:37:53.670Z,27.13
2023-04-30T12:40:22.260Z,27.87
2023-04-30T12:42:48.929Z,27.82
2023-04-30T12:45:48.218Z,27.45
2023-04-30T12:48:15.959Z,27.34
2023-04-30T12:50:43.320Z,26.59
2023-04-30T12:53:10.055Z,26.42
2023-04-30T12:55:37.874Z,26.59
2023-04-30T12:58:12.964Z,26.39
2023-04-30T13:00:51.343Z,25.83
2023-04-30T13:03:21.071Z,25.77
2023-04-30T13:05:50.046Z,26.15
2023-04-30T13:08:18.019Z,26.12
2023-04-30T13:10:46.468Z,26.21
2023-04-30T13:13:14.839Z,26.20
2023-04-30T13:15:42.997Z,26.69
2023-04-30T13:18:10.086Z,26.75
2023-04-30T13:20:36.875Z,26.45
2023-04-30T13:23:03.878Z,26.60
2023-04-30T13:25:31.987Z,26.93
2023-04-30T13:27:58.626Z,26.89
2023-04-30T13:30:25.504Z,26.43
2023-04-30T13:32:52.500Z,26.11
2023-04-30T13:35:19.352Z,26.30
2023-04-30T13:37:47.888Z,26.50
2023-04-30T13:40:15.335Z,26.32
2023-04-30T13:42:45.259Z,26.65
2023-04-30T13:45:12.693Z,26.81
2023-04-30T13:47:39.786Z,26.95
2023-04-30T13:50:08.474Z,27.18
2023-04-30T13:52:35.241Z,27.10
2023-04-30T13:55:02.188Z,26.97
2023-04-30T13:57:32.684Z,27.08
2023-04-30T13:59:59.645Z,27.00
2023-04-30T14:02:30.197Z,26.58
2023-04-30T14:05:05.219Z,26.92
2023-04-30T14:07:32.773Z,26.69
2023-04-30T14:09:59.667Z,27.03
2023-04-30T14:12:26.497Z,26.98
2023-04-30T14:14:53.109Z,26.61
2023-04-30T14:17:20.300Z,26.63
2023-04-30T14:19:47.179Z,26.90
2023-04-30T14:22:14.007Z,26.59
2023-04-30T14:24:40.881Z,26.69
2023-04-30T14:27:07.479Z,26.82
2023-04-30T14:29:34.025Z,26.97
2023-04-30T14:32:01.389Z,26.82
2023-04-30T14:34:27.993Z,26.95
2023-04-30T14:36:54.856Z,26.73
2023-04-30T14:39:21.351Z,26.84
2023-04-30T14:41:47.884Z,26.87
2023-04-30T14:44:14.487Z,27.00
2023-04-30T14:46:41.387Z,27.04
2023-04-30T14:49:08.045Z,27.21
2023-04-30T14:51:34.670Z,27.28
2023-04-30T14:54:02.395Z,27.15
2023-04-30T14:56:29.090Z,27.32
2023-04-30T14:58:55.615Z,27.14
2023-04-30T15:01:22.406Z,26.27
2023-04-30T15:03:49.234Z,26.23
2023-04-30T15:06:16.290Z,26.37
2023-04-30T15:08:43.051Z,26.43
2023-04-30T15:11:10.655Z,26.81
2023-04-30T15:13:37.501Z,27.15
2023-04-30T15:16:04.701Z,27.16
2023-04-30T15:18:31.941Z,27.31
2023-04-30T15:20:58.844Z,26.78
2023-04-30T15:23:25.359Z,26.70
2023-04-30T15:25:51.989Z,26.98
2023-04-30T15:28:19.430Z,26.85
2023-04-30T15:30:46.195Z,26.98
2023-04-30T15:33:12.764Z,26.88
2023-04-30T15:35:39.817Z,26.73
2023-04-30T15:38:06.686Z,26.78
2023-04-30T15:40:33.218Z,26.86
2023-04-30T15:42:59.743Z,26.80
2023-04-30T15:45:27.824Z,26.98
2023-04-30T15:47:54.388Z,27.25
2023-04-30T15:50:21.323Z,27.03
2023-04-30T15:52:47.857Z,27.10
2023-04-30T15:55:14.468Z,26.99
2023-04-30T15:57:41.028Z,26.65
2023-04-30T16:00:08.771Z,26.71
2023-04-30T16:02:41.300Z,26.89
2023-04-30T16:05:08.298Z,26.95
2023-04-30T16:07:35.261Z,26.90
2023-04-30T16:10:02.950Z,27.21
2023-04-30T16:12:30.014Z,26.74
2023-04-30T16:14:56.659Z,26.33
2023-04-30T16:17:24.274Z,26.42
2023-04-30T16:19:50.920Z,26.48
2023-04-30T16:22:18.397Z,26.23
2023-04-30T16:24:45.106Z,26.26
2023-04-30T16:27:11.708Z,26.01
2023-04-30T16:29:38.359Z,26.09
2023-04-30T16:32:05.111Z,26.31
2023-04-30T16:34:31.662Z,26.13
2023-04-30T16:36:58.186Z,26.18
2023-04-30T16:39:24.830Z,26.48
2023-04-30T16:41:51.439Z,26.99
2023-04-30T16:44:17.918Z,26.66
2023-04-30T16:46:44.563Z,26.85
2023-04-30T16:49:11.041Z,27.08
2023-04-30T16:51:37.739Z,27.45
2023-04-30T16:54:04.216Z,27.47
2023-04-30T16:56:30.925Z,27.39
2023-04-30T16:58:57.434Z,27.43
2023-04-30T17:01:24.172Z,27.39
2023-04-30T17:03:51.472Z,27.10
2023-04-30T17:06:18.282Z,27.09
2023-04-30T17:08:44.924Z,27.34
2023-04-30T17:11:11.628Z,27.00
2023-04-30T17:13:38.265Z,26.76
2023-04-30T17:16:05.197Z,26.75
2023-04-30T17:18:32.282Z,26.42
2023-04-30T17:20:58.935Z,26.44
2023-04-30T17:23:25.581Z,26.29
2023-04-30T17:25:52.262Z,26.53
2023-04-30T17:28:18.745Z,26.45
2023-04-30T17:30:45.520Z,26.26
2023-04-30T17:33:12.220Z,26.07
2023-04-30T17:35:38.855Z,26.28
2023-04-30T17:38:05.380Z,25.93
2023-04-30T17:40:32.524Z,25.61
2023-04-30T17:42:59.014Z,25.43
2023-04-30T17:45:26.673Z,25.27
2023-04-30T17:47:53.328Z,25.23
2023-04-30T17:50:19.945Z,25.43
2023-04-30T17:52:46.635Z,25.23
2023-04-30T17:55:13.625Z,25.27
2023-04-30T17:57:40.136Z,25.18
2023-04-30T18:00:07.384Z,25.00
2023-04-30T18:02:40.019Z,24.88
2023-04-30T18:05:06.882Z,24.82
2023-04-30T18:07:33.446Z,24.64
2023-04-30T18:10:00.294Z,24.76
2023-04-30T18:12:27.128Z,24.90
2023-04-30T18:14:53.832Z,24.78
2023-04-30T18:17:20.353Z,24.53
2023-04-30T18:19:48.589Z,24.74
2023-04-30T18:22:15.270Z,24.72
2023-04-30T18:24:42.352Z,24.40
2023-04-30T18:27:09.965Z,24.13
2023-04-30T18:29:37.008Z,24.14
2023-04-30T18:32:03.658Z,24.04
2023-04-30T18:34:30.279Z,24.23
2023-04-30T18:36:57.010Z,24.43
2023-04-30T18:39:23.521Z,24.33
2023-04-30T18:41:51.369Z,24.33
2023-04-30T18:44:19.096Z,24.23
2023-04-30T18:46:45.682Z,24.16
2023-04-30T18:49:13.582Z,24.02
2023-04-30T18:51:40.219Z,24.15
2023-04-30T18:54:06.676Z,24.36
2023-04-30T18:56:33.241Z,24.50
2023-04-30T18:58:59.728Z,24.43
2023-04-30T19:01:27.189Z,24.02
2023-04-30T19:03:54.249Z,23.91
2023-04-30T19:06:21.059Z,23.98
2023-04-30T19:08:47.908Z,23.77
2023-04-30T19:11:14.903Z,23.60
2023-04-30T19:13:41.455Z,23.55
2023-04-30T19:16:08.223Z,23.65
2023-04-30T19:18:35.098Z,23.30
2023-04-30T19:21:02.194Z,23.28
2023-04-30T19:23:30.168Z,23.05
2023-04-30T19:25:57.844Z,23.14
2023-04-30T19:28:24.553Z,23.40
2023-04-30T19:30:54.065Z,23.22
2023-04-30T19:33:22.069Z,23.16
2023-04-30T19:35:49.722Z,23.34
2023-04-30T19:38:17.010Z,23.25
2023-04-30T19:40:51.951Z,23.12
2023-04-30T19:43:19.870Z,23.23
2023-04-30T19:45:50.243Z,23.32
2023-04-30T19:48:17.483Z,23.52
2023-04-30T19:50:47.528Z,23.31
2023-04-30T19:53:16.214Z,23.18
2023-04-30T19:55:43.759Z,22.76
2023-04-30T19:58:10.370Z,22.43
2023-04-30T20:00:38.385Z,22.71
2023-04-30T20:03:05.416Z,22.80
2023-04-30T20:05:33.395Z,22.83
2023-04-30T20:08:00.005Z,22.89
2023-04-30T20:10:27.084Z,22.75
2023-04-30T20:12:54.376Z,22.97
2023-04-30T20:15:22.493Z,22.95
2023-04-30T20:17:50.293Z,22.62
2023-04-30T20:20:17.998Z,22.49
2023-04-30T20:22:44.602Z,22.65
2023-04-30T20:25:11.080Z,22.94
2023-04-30T20:27:37.693Z,22.79
2023-04-30T20:30:05.269Z,22.67
2023-04-30T20:32:31.926Z,22.68
2023-04-30T20:34:58.861Z,22.77
2023-04-30T20:37:25.568Z,22.94
2023-04-30T20:39:52.226Z,22.68
2023-04-30T20:42:19.720Z,22.77
2023-04-30T20:44:47.327Z,22.64
2023-04-30T20:47:16.900Z,22.30
2023-04-30T20:49:43.826Z,22.54
2023-04-30T20:52:12.097Z,22.52
2023-04-30T20:54:39.035Z,22.51
2023-04-30T20:57:05.982Z,22.40
2023-04-30T20:59:32.682Z,21.57
2023-04-30T21:01:59.251Z,21.56
2023-04-30T21:04:25.893Z,21.80
2023-04-30T21:06:52.726Z,21.96
2023-04-30T21:09:19.372Z,22.34
2023-04-30T21:11:46.043Z,22.50
2023-04-30T21:14:12.713Z,22.00
2023-04-30T21:16:40.708Z,21.88
2023-04-30T21:19:07.506Z,22.03
2023-04-30T21:21:34.561Z,21.96
2023-04-30T21:24:01.132Z,22.29
2023-04-30T21:26:28.144Z,22.47
2023-04-30T21:28:54.777Z,22.23
2023-04-30T21:31:21.491Z,22.07
2023-04-30T21:33:48.080Z,22.02
2023-04-30T21:36:16.401Z,22.22
2023-04-30T21:38:43.067Z,22.09
2023-04-30T21:41:16.862Z,22.20
2023-04-30T21:43:44.065Z,22.16
2023-04-30T21:46:10.933Z,21.97
2023-04-30T21:48:38.345Z,21.72
2023-04-30T21:51:16.708Z,21.79
2023-04-30T21:53:44.417Z,21.95
2023-04-30T21:56:11.656Z,21.93
2023-04-30T21:58:39.140Z,22.05
2023-04-30T22:01:06.174Z,22.13
2023-04-30T22:03:33.624Z,22.09
2023-04-30T22:06:00.617Z,22.01
2023-04-30T22:08:27.917Z,22.03
2023-04-30T22:11:00.783Z,22.01
2023-04-30T22:13:28.217Z,21.98
2023-04-30T22:15:55.259Z,22.04
2023-04-30T22:18:22.808Z,21.80
2023-04-30T22:20:50.016Z,21.73
2023-04-30T22:23:17.259Z,21.57
2023-04-30T22:25:43.904Z,21.77
2023-04-30T22:28:10.539Z,21.89
2023-04-30T22:30:37.711Z,21.67
2023-04-30T22:33:04.364Z,21.18
2023-04-30T22:35:32.625Z,21.38
2023-04-30T22:38:00.412Z,21.51
2023-04-30T22:40:27.197Z,21.52
2023-04-30T22:42:54.092Z,21.59
2023-04-30T22:45:20.796Z,21.46
2023-04-30T22:47:47.647Z,21.44
2023-04-30T22:50:14.253Z,21.47
2023-04-30T22:52:41.097Z,21.50
2023-04-30T22:55:08.190Z,21.58
2023-04-30T22:57:34.816Z,21.62
2023-04-30T23:00:01.667Z,21.58
2023-04-30T23:02:28.678Z,21.62
2023-04-30T23:04:55.353Z,21.56
2023-04-30T23:07:21.926Z,21.58
2023-04-30T23:09:48.664Z,21.98
2023-04-30T23:12:15.877Z,21.83
2023-04-30T23:14:42.447Z,21.62
2023-04-30T23:17:09.281Z,21.76
2023-04-30T23:19:36.024Z,21.50
2023-04-30T23:22:02.594Z,21.67
2023-04-30T23:24:34.918Z,21.62
2023-04-30T23:27:03.108Z,21.71
2023-04-30T23:29:29.712Z,21.03
2023-04-30T23:31:56.695Z,21.10
2023-04-30T23:34:23.416Z,21.11
2023-04-30T23:36:50.022Z,21.14
2023-04-30T23:39:16.753Z,21.04
2023-04-30T23:41:43.404Z,21.24
2023-04-30T23:44:10.226Z,20.84
2023-04-30T23:46:36.813Z,21.01
2023-04-30T23:49:03.660Z,21.13
2023-04-30T23:51:32.467Z,21.16
2023-04-30T23:53:59.104Z,20.83
2023-04-30T23:56:25.683Z,21.01
2023-04-30T23:58:52.195Z,21.12
